Time;durP1;ratioP1;P1;durP2;ratioP2;P2;SDS_P1;SDS_P2;PMS_P1;PMS_P2;Temp;Humidity;BMP_temperature;BMP_pressure;BME280_temperature;BME280_humidity;BME280_pressure;Samples;Min_cycle;Max_cycle;Signal;HPM_P1;HPM_P2
2021/12/25 00:01:49;;;;;;;2.80;1.02;;;;;;;;;;5064702;28;20084;-70
2021/12/25 00:04:21;;;;;;;1.77;1.13;;;;;;;;;;5053662;28;20053;-70
2021/12/25 00:06:50;;;;;;;2.63;1.00;;;;;;;;;;5065490;28;20462;-70
2021/12/25 00:09:18;;;;;;;3.70;1.05;;;;;;;;;;5070400;28;20139;-71
2021/12/25 00:11:48;;;;;;;5.05;1.23;;;;;;;;;;5061712;28;20505;-71
2021/12/25 00:14:16;;;;;;;1.45;0.93;;;;;;;;;;5053988;28;20135;-71
2021/12/25 00:16:48;;;;;;;2.03;0.90;;;;;;;;;;5065941;28;20051;-70
2021/12/25 00:19:16;;;;;;;1.98;0.90;;;;;;;;;;5062896;28;20409;-71
2021/12/25 00:21:44;;;;;;;2.15;0.85;;;;;;;;;;5058321;28;20132;-70
2021/12/25 00:24:13;;;;;;;3.20;1.00;;;;;;;;;;5053162;28;20084;-70
2021/12/25 00:26:50;;;;;;;1.23;0.70;;;;;;;;;;5063826;28;20369;-70
2021/12/25 00:32:35;;;;;;;3.67;0.88;;;;;;;;;;5066684;28;20732;-70
2021/12/25 00:35:04;;;;;;;1.60;0.80;;;;;;;;;;5100084;28;20059;-69
2021/12/25 00:37:32;;;;;;;1.35;0.90;;;;;;;;;;5111303;28;20074;-70
2021/12/25 00:40:01;;;;;;;2.05;0.90;;;;;;;;;;5095472;28;20127;-69
2021/12/25 00:42:30;;;;;;;2.75;0.82;;;;;;;;;;5106048;28;20487;-69
2021/12/25 00:45:00;;;;;;;2.33;0.88;;;;;;;;;;5104012;28;20066;-69
2021/12/25 00:47:28;;;;;;;1.80;1.00;;;;;;;;;;5117314;27;20065;-70
2021/12/25 00:49:56;;;;;;;1.83;1.00;;;;;;;;;;5101974;27;20047;-69
2021/12/25 00:52:24;;;;;;;3.20;1.10;;;;;;;;;;5106851;28;20055;-70
2021/12/25 00:54:53;;;;;;;2.92;0.93;;;;;;;;;;5094085;28;20328;-70
2021/12/25 00:57:21;;;;;;;2.30;0.90;;;;;;;;;;5105216;28;20040;-70
2021/12/25 00:59:49;;;;;;;1.75;0.90;;;;;;;;;;5100016;28;20596;-69
2021/12/25 01:02:19;;;;;;;3.40;0.82;;;;;;;;;;5101694;28;20143;-69
2021/12/25 01:04:47;;;;;;;2.60;1.17;;;;;;;;;;5098064;28;20048;-70
2021/12/25 01:07:16;;;;;;;2.17;1.17;;;;;;;;;;5103341;28;20040;-69
2021/12/25 01:09:48;;;;;;;2.30;0.98;;;;;;;;;;5107239;27;20044;-69
2021/12/25 01:12:17;;;;;;;1.23;0.80;;;;;;;;;;5098754;28;20494;-69
2021/12/25 01:14:49;;;;;;;1.88;0.88;;;;;;;;;;5093101;28;20062;-69
2021/12/25 01:17:43;;;;;;;1.67;0.70;;;;;;;;;;5103280;28;20126;-70
2021/12/25 01:20:34;;;;;;;2.22;1.00;;;;;;;;;;5102142;28;21280;-70
2021/12/25 01:23:42;;;;;;;1.77;0.95;;;;;;;;;;5108779;28;20090;-70
2021/12/25 01:31:48;;;;;;;1.92;0.80;;;;;;;;;;5101382;28;20047;-69
2021/12/25 01:34:56;;;;;;;1.60;0.97;;;;;;;;;;5098167;28;20402;-69
2021/12/25 01:37:36;;;;;;;1.73;1.08;;;;;;;;;;5107058;28;20145;-69
2021/12/25 01:40:20;;;;;;;1.33;0.98;;;;;;;;;;5117373;27;20134;-69
2021/12/25 01:48:20;;;;;;;3.47;1.15;;;;;;;;;;5106844;28;20076;-69
2021/12/25 01:50:50;;;;;;;1.65;0.88;;;;;;;;;;5104135;28;20058;-69
2021/12/25 01:53:19;;;;;;;1.90;0.90;;;;;;;;;;5105015;28;20509;-69
2021/12/25 01:55:47;;;;;;;1.75;0.90;;;;;;;;;;5104226;28;20083;-69
2021/12/25 01:58:15;;;;;;;3.58;0.95;;;;;;;;;;5103732;28;20048;-69
2021/12/25 02:00:45;;;;;;;1.85;1.02;;;;;;;;;;5099443;28;20046;-70
2021/12/25 02:03:15;;;;;;;1.38;0.80;;;;;;;;;;5103039;28;20126;-69
2021/12/25 02:05:43;;;;;;;1.88;1.00;;;;;;;;;;5104839;28;20421;-70
2021/12/25 02:08:27;;;;;;;2.17;0.80;;;;;;;;;;5113713;28;20043;-70
2021/12/25 02:10:56;;;;;;;3.38;0.95;;;;;;;;;;5112390;28;20569;-69
2021/12/25 02:13:25;;;;;;;2.00;0.98;;;;;;;;;;5100163;28;20135;-69
2021/12/25 02:15:55;;;;;;;1.42;0.90;;;;;;;;;;5104802;28;20046;-70
2021/12/25 02:18:28;;;;;;;5.07;0.90;;;;;;;;;;5102548;28;20044;-70
2021/12/25 02:21:07;;;;;;;1.65;0.93;;;;;;;;;;5096810;28;20076;-70
2021/12/25 02:23:39;;;;;;;2.60;0.90;;;;;;;;;;5094130;28;20135;-70
2021/12/25 02:26:07;;;;;;;1.90;0.90;;;;;;;;;;5105412;28;20075;-69
2021/12/25 02:28:36;;;;;;;1.75;1.48;;;;;;;;;;5107964;28;20131;-70
2021/12/25 02:31:10;;;;;;;1.80;1.10;;;;;;;;;;5108082;28;20142;-69
2021/12/25 02:33:39;;;;;;;1.75;1.05;;;;;;;;;;5099731;28;20051;-69
2021/12/25 02:36:09;;;;;;;1.73;0.93;;;;;;;;;;5096993;28;20043;-69
2021/12/25 02:38:38;;;;;;;2.75;1.10;;;;;;;;;;5099588;28;20513;-70
2021/12/25 02:41:07;;;;;;;1.05;0.82;;;;;;;;;;5111941;28;20641;-70
2021/12/25 02:43:35;;;;;;;4.65;1.20;;;;;;;;;;5105957;28;20146;-70
2021/12/25 02:46:07;;;;;;;1.95;1.00;;;;;;;;;;5097674;28;20510;-70
2021/12/25 02:48:37;;;;;;;2.97;1.02;;;;;;;;;;5098568;28;20196;-70
2021/12/25 02:51:10;;;;;;;1.17;0.63;;;;;;;;;;5101759;28;20071;-69
2021/12/25 02:53:39;;;;;;;1.10;0.90;;;;;;;;;;5102652;28;20135;-69
2021/12/25 02:56:07;;;;;;;2.08;1.23;;;;;;;;;;5112238;28;20138;-70
2021/12/25 02:58:36;;;;;;;2.60;0.98;;;;;;;;;;5108108;28;20184;-69
2021/12/25 03:01:08;;;;;;;3.03;0.90;;;;;;;;;;5107552;28;20531;-69
2021/12/25 03:03:37;;;;;;;2.28;0.77;;;;;;;;;;5112658;28;20075;-70
2021/12/25 03:06:10;;;;;;;0.98;0.70;;;;;;;;;;5100982;28;20152;-69
2021/12/25 03:08:39;;;;;;;2.40;1.17;;;;;;;;;;5103389;28;20052;-70
2021/12/25 03:11:08;;;;;;;1.10;0.77;;;;;;;;;;5105957;28;20491;-69
2021/12/25 03:13:44;;;;;;;1.45;1.00;;;;;;;;;;5093451;28;20068;-69
2021/12/25 03:16:12;;;;;;;3.67;0.90;;;;;;;;;;5104788;28;20071;-69
2021/12/25 03:18:45;;;;;;;1.35;0.98;;;;;;;;;;5104181;28;20187;-69
2021/12/25 03:21:17;;;;;;;1.75;0.77;;;;;;;;;;5096901;28;20478;-69
2021/12/25 03:23:46;;;;;;;1.50;1.38;;;;;;;;;;5110635;28;20079;-69
2021/12/25 03:26:14;;;;;;;1.60;0.88;;;;;;;;;;5110400;28;20130;-69
2021/12/25 03:28:44;;;;;;;1.02;0.80;;;;;;;;;;5107757;28;20053;-70
2021/12/25 03:31:16;;;;;;;2.35;0.85;;;;;;;;;;5106180;28;20415;-70
2021/12/25 03:33:56;;;;;;;2.25;0.90;;;;;;;;;;706697;28;10002795;-70
2021/12/25 03:36:26;;;;;;;2.45;0.90;;;;;;;;;;5109916;28;20397;-70
2021/12/25 03:38:54;;;;;;;1.92;1.13;;;;;;;;;;5102665;28;20462;-70
2021/12/25 03:41:24;;;;;;;1.13;0.70;;;;;;;;;;5108471;28;20047;-70
2021/12/25 03:43:53;;;;;;;2.03;0.80;;;;;;;;;;5096429;28;20518;-69
2021/12/25 03:46:21;;;;;;;1.20;0.77;;;;;;;;;;5102664;28;20047;-70
2021/12/25 03:49:07;;;;;;;0.65;0.45;;;;;;;;;;5099544;28;20040;-69
2021/12/25 04:00:04;;;;;;;2.28;0.85;;;;;;;;;;5095942;28;20558;-70
2021/12/25 04:02:36;;;;;;;0.70;0.65;;;;;;;;;;5117576;27;20055;-70
2021/12/25 04:05:07;;;;;;;0.98;0.77;;;;;;;;;;5114730;27;20097;-69
2021/12/25 04:10:25;;;;;;;1.17;0.60;;;;;;;;;;5103384;28;20054;-69
2021/12/25 04:12:53;;;;;;;2.00;0.88;;;;;;;;;;5107856;28;20047;-69
2021/12/25 04:15:21;;;;;;;1.17;0.70;;;;;;;;;;5111404;28;20054;-69
2021/12/25 04:17:50;;;;;;;1.50;0.70;;;;;;;;;;5110680;28;20126;-69
2021/12/25 04:20:18;;;;;;;2.65;0.85;;;;;;;;;;5110856;28;20051;-69
2021/12/25 04:22:53;;;;;;;0.85;0.70;;;;;;;;;;5105939;28;20410;-69
2021/12/25 04:25:26;;;;;;;3.30;0.85;;;;;;;;;;5107116;28;20268;-69
2021/12/25 04:27:58;;;;;;;1.58;1.08;;;;;;;;;;5106782;28;20040;-69
2021/12/25 04:30:34;;;;;;;1.52;0.82;;;;;;;;;;5111094;28;20134;-69
2021/12/25 05:03:39;;;;;;;1.98;0.55;;;;;;;;;;5080755;28;20155;-69
2021/12/25 05:06:07;;;;;;;1.38;0.82;;;;;;;;;;5073297;28;20451;-69
2021/12/25 05:08:36;;;;;;;0.50;0.40;;;;;;;;;;5084930;28;20757;-69
2021/12/25 05:11:09;;;;;;;1.15;0.60;;;;;;;;;;5081070;28;20052;-69
2021/12/25 05:13:37;;;;;;;1.65;0.80;;;;;;;;;;5082464;28;20090;-69
2021/12/25 05:16:08;;;;;;;1.73;0.75;;;;;;;;;;5077853;28;20132;-69
2021/12/25 05:18:36;;;;;;;0.80;0.60;;;;;;;;;;5090734;28;20055;-69
2021/12/25 05:21:08;;;;;;;1.02;0.60;;;;;;;;;;5085959;28;20071;-69
2021/12/25 05:23:37;;;;;;;1.45;0.70;;;;;;;;;;5088653;28;20044;-69
2021/12/25 05:26:11;;;;;;;1.77;0.77;;;;;;;;;;5075184;28;20146;-69
2021/12/25 05:28:41;;;;;;;2.55;0.70;;;;;;;;;;5085327;28;20050;-69
2021/12/25 05:31:10;;;;;;;0.95;0.68;;;;;;;;;;5071936;28;20534;-69
2021/12/25 05:33:39;;;;;;;1.38;0.95;;;;;;;;;;5083726;28;20131;-69
2021/12/25 05:36:10;;;;;;;1.13;0.82;;;;;;;;;;5077089;28;20044;-69
2021/12/25 05:38:38;;;;;;;1.88;0.80;;;;;;;;;;5072703;28;20140;-69
2021/12/25 05:41:07;;;;;;;4.03;0.82;;;;;;;;;;5082143;28;20138;-69
2021/12/25 05:43:36;;;;;;;1.92;1.35;;;;;;;;;;5097250;28;20146;-69
2021/12/25 05:46:07;;;;;;;1.60;1.10;;;;;;;;;;5107356;28;20051;-69
2021/12/25 05:48:36;;;;;;;1.60;0.90;;;;;;;;;;5104335;28;20298;-69
2021/12/25 05:51:07;;;;;;;1.00;0.60;;;;;;;;;;5108612;28;20055;-69
2021/12/25 05:53:35;;;;;;;0.80;0.65;;;;;;;;;;5100907;28;20197;-69
2021/12/25 05:56:07;;;;;;;1.27;0.75;;;;;;;;;;5107755;28;20054;-69
2021/12/25 05:58:36;;;;;;;1.58;0.73;;;;;;;;;;5100806;28;20520;-69
2021/12/25 06:01:07;;;;;;;4.22;0.95;;;;;;;;;;5106454;28;20363;-69
2021/12/25 06:03:36;;;;;;;1.35;0.80;;;;;;;;;;5102119;28;20044;-69
2021/12/25 06:06:07;;;;;;;1.85;0.77;;;;;;;;;;5097823;28;20804;-69
2021/12/25 06:08:36;;;;;;;2.13;1.23;;;;;;;;;;5103717;28;20196;-69
2021/12/25 06:11:07;;;;;;;1.77;0.90;;;;;;;;;;5102475;28;20051;-69
2021/12/25 06:13:43;;;;;;;1.60;0.82;;;;;;;;;;5105117;28;20564;-69
2021/12/25 06:16:12;;;;;;;1.30;0.80;;;;;;;;;;5097221;28;20522;-69
2021/12/25 06:18:40;;;;;;;1.25;0.65;;;;;;;;;;5110063;28;20255;-69
2021/12/25 06:21:08;;;;;;;1.25;0.65;;;;;;;;;;5108075;28;20394;-69
2021/12/25 06:23:36;;;;;;;2.85;1.00;;;;;;;;;;5111663;28;20134;-70
2021/12/25 06:26:21;;;;;;;1.92;0.90;;;;;;;;;;5100033;28;20078;-69
2021/12/25 06:28:50;;;;;;;2.15;0.90;;;;;;;;;;5090997;28;20106;-70
2021/12/25 06:31:19;;;;;;;1.33;0.82;;;;;;;;;;5092828;28;20118;-69
2021/12/25 06:33:47;;;;;;;1.58;0.88;;;;;;;;;;5108857;28;20039;-69
2021/12/25 06:36:15;;;;;;;2.03;0.90;;;;;;;;;;5103118;28;20146;-69
2021/12/25 06:38:44;;;;;;;1.45;0.80;;;;;;;;;;5109374;28;20090;-70
2021/12/25 06:41:14;;;;;;;1.05;0.85;;;;;;;;;;5107658;28;20079;-70
2021/12/25 06:43:43;;;;;;;1.30;0.70;;;;;;;;;;5099546;28;20134;-69
2021/12/25 06:46:12;;;;;;;0.95;0.57;;;;;;;;;;5100655;28;20491;-69
2021/12/25 06:48:41;;;;;;;0.90;0.75;;;;;;;;;;5111243;28;20074;-69
2021/12/25 06:51:10;;;;;;;0.63;0.40;;;;;;;;;;5109836;28;20540;-69
2021/12/25 06:53:38;;;;;;;0.93;0.60;;;;;;;;;;5103810;28;20501;-69
2021/12/25 06:56:06;;;;;;;0.57;0.40;;;;;;;;;;5104534;28;20157;-69
2021/12/25 06:58:35;;;;;;;2.05;0.80;;;;;;;;;;5096237;28;20051;-69
2021/12/25 07:01:06;;;;;;;0.98;0.50;;;;;;;;;;5105960;28;20127;-69
2021/12/25 07:03:36;;;;;;;0.60;0.60;;;;;;;;;;5103365;28;20040;-70
2021/12/25 07:06:09;;;;;;;1.50;0.60;;;;;;;;;;5102417;28;20582;-70
2021/12/25 07:08:38;;;;;;;1.08;0.60;;;;;;;;;;5103394;28;20199;-69
2021/12/25 07:11:06;;;;;;;2.17;0.60;;;;;;;;;;5106903;28;20051;-69
2021/12/25 07:13:35;;;;;;;0.70;0.60;;;;;;;;;;5103766;28;20779;-69
2021/12/25 07:16:06;;;;;;;0.90;0.70;;;;;;;;;;5099615;28;20056;-70
2021/12/25 07:18:36;;;;;;;0.60;0.45;;;;;;;;;;5095556;28;20043;-69
2021/12/25 07:21:08;;;;;;;1.23;0.80;;;;;;;;;;5105860;28;20183;-70
2021/12/25 07:23:36;;;;;;;0.80;0.63;;;;;;;;;;5107354;28;20054;-70
2021/12/25 07:26:08;;;;;;;1.00;0.77;;;;;;;;;;5103938;28;20066;-69
2021/12/25 07:28:36;;;;;;;1.10;0.93;;;;;;;;;;5108358;28;20533;-69
2021/12/25 07:31:08;;;;;;;1.15;0.75;;;;;;;;;;5104009;28;20048;-69
2021/12/25 07:33:40;;;;;;;1.02;0.70;;;;;;;;;;5102020;28;20153;-69
2021/12/25 07:36:10;;;;;;;0.60;0.40;;;;;;;;;;5106205;28;20047;-70
2021/12/25 07:38:38;;;;;;;1.08;0.60;;;;;;;;;;5109719;28;20047;-69
2021/12/25 07:41:06;;;;;;;1.75;0.68;;;;;;;;;;5101335;28;20556;-69
2021/12/25 07:43:35;;;;;;;1.02;0.70;;;;;;;;;;5104910;28;20589;-70
2021/12/25 07:46:07;;;;;;;1.48;1.08;;;;;;;;;;5104277;27;20051;-70
2021/12/25 07:48:35;;;;;;;0.70;0.70;;;;;;;;;;5106648;28;20450;-70
2021/12/25 07:51:08;;;;;;;1.30;0.95;;;;;;;;;;5100464;28;20051;-70
2021/12/25 07:53:36;;;;;;;1.15;0.82;;;;;;;;;;5116386;27;20531;-69
2021/12/25 07:56:07;;;;;;;2.85;0.80;;;;;;;;;;5109434;28;20083;-70
2021/12/25 07:58:36;;;;;;;1.10;1.00;;;;;;;;;;5102658;28;20046;-70
2021/12/25 08:01:07;;;;;;;3.92;1.02;;;;;;;;;;5102581;28;20143;-70
2021/12/25 08:03:35;;;;;;;1.20;0.80;;;;;;;;;;5107522;27;20043;-70
2021/12/25 08:06:08;;;;;;;2.53;0.90;;;;;;;;;;5107750;28;20143;-69
2021/12/25 08:08:36;;;;;;;2.85;0.85;;;;;;;;;;5108326;28;20135;-70
2021/12/25 08:11:08;;;;;;;2.08;0.85;;;;;;;;;;5108524;28;20051;-69
2021/12/25 08:13:36;;;;;;;3.42;1.33;;;;;;;;;;5100260;27;20427;-69
2021/12/25 08:16:07;;;;;;;1.45;0.90;;;;;;;;;;5093648;28;20093;-70
2021/12/25 08:18:36;;;;;;;1.65;1.15;;;;;;;;;;5101099;27;20035;-69
2021/12/25 08:21:08;;;;;;;2.05;1.05;;;;;;;;;;5120800;27;20138;-69
2021/12/25 08:23:37;;;;;;;2.38;1.00;;;;;;;;;;5103154;28;20074;-69
2021/12/25 08:26:08;;;;;;;1.40;0.93;;;;;;;;;;5105703;28;20135;-70
2021/12/25 08:28:37;;;;;;;1.98;1.10;;;;;;;;;;5107827;28;20519;-70
2021/12/25 08:31:08;;;;;;;1.40;0.93;;;;;;;;;;5093253;28;20128;-70
2021/12/25 08:33:36;;;;;;;2.28;0.90;;;;;;;;;;5105288;28;20044;-70
2021/12/25 08:36:10;;;;;;;6.60;1.38;;;;;;;;;;5106942;28;20263;-70
2021/12/25 08:38:38;;;;;;;2.22;1.20;;;;;;;;;;5107914;28;20439;-69
2021/12/25 08:41:06;;;;;;;3.47;1.30;;;;;;;;;;5106820;28;20055;-70
2021/12/25 08:43:44;;;;;;;1.90;1.10;;;;;;;;;;5107281;27;20097;-70
2021/12/25 08:46:16;;;;;;;1.92;1.02;;;;;;;;;;5108148;28;20134;-70
2021/12/25 08:48:45;;;;;;;5.25;1.88;;;;;;;;;;5106958;28;20569;-70
2021/12/25 08:51:15;;;;;;;2.75;1.50;;;;;;;;;;5094468;28;20134;-70
2021/12/25 08:53:43;;;;;;;3.83;1.40;;;;;;;;;;5107342;28;20147;-70
2021/12/25 08:56:12;;;;;;;2.65;1.40;;;;;;;;;;5102862;28;20399;-70
2021/12/25 08:58:40;;;;;;;3.47;1.33;;;;;;;;;;5103703;28;20071;-70
2021/12/25 09:01:09;;;;;;;3.05;1.42;;;;;;;;;;5086828;28;20594;-69
2021/12/25 09:03:37;;;;;;;3.58;1.65;;;;;;;;;;5088226;28;20052;-70
2021/12/25 09:06:06;;;;;;;5.00;1.80;;;;;;;;;;5088280;28;21087;-70
2021/12/25 09:08:36;;;;;;;3.22;1.30;;;;;;;;;;5097978;28;20134;-69
2021/12/25 09:11:07;;;;;;;2.03;1.25;;;;;;;;;;5100364;28;20143;-69
2021/12/25 09:13:36;;;;;;;3.42;1.20;;;;;;;;;;5101437;28;20151;-70
2021/12/25 09:16:07;;;;;;;2.20;1.48;;;;;;;;;;5103923;28;22221;-70
2021/12/25 09:18:35;;;;;;;2.67;1.40;;;;;;;;;;5107043;28;20058;-70
2021/12/25 09:21:07;;;;;;;2.45;1.60;;;;;;;;;;5104821;28;20494;-70
2021/12/25 09:23:37;;;;;;;3.17;1.17;;;;;;;;;;5100838;28;20127;-70
2021/12/25 09:26:08;;;;;;;3.13;1.50;;;;;;;;;;5106299;28;20142;-70
2021/12/25 09:28:37;;;;;;;3.90;1.70;;;;;;;;;;5112597;27;20134;-70
2021/12/25 09:31:08;;;;;;;2.45;1.42;;;;;;;;;;5100338;28;20209;-70
2021/12/25 09:33:36;;;;;;;2.53;1.48;;;;;;;;;;5106117;28;20048;-70
2021/12/25 09:36:09;;;;;;;3.22;1.42;;;;;;;;;;5087972;28;20511;-70
2021/12/25 09:38:40;;;;;;;2.28;1.30;;;;;;;;;;5100427;28;20050;-70
2021/12/25 09:41:09;;;;;;;4.05;1.25;;;;;;;;;;5101569;28;20191;-71
2021/12/25 09:43:39;;;;;;;2.17;1.00;;;;;;;;;;5092902;28;20066;-70
2021/12/25 09:46:07;;;;;;;3.28;1.05;;;;;;;;;;5093763;28;20489;-71
2021/12/25 09:48:36;;;;;;;1.38;0.90;;;;;;;;;;5100351;28;20079;-72
2021/12/25 09:51:08;;;;;;;2.53;1.00;;;;;;;;;;5104845;28;20070;-71
2021/12/25 09:53:36;;;;;;;2.28;1.13;;;;;;;;;;5090009;28;20610;-71
2021/12/25 09:56:09;;;;;;;2.08;0.90;;;;;;;;;;5101249;28;20503;-70
2021/12/25 09:58:38;;;;;;;3.00;0.90;;;;;;;;;;5100610;28;20087;-71
2021/12/25 10:01:06;;;;;;;1.95;1.10;;;;;;;;;;5101616;28;20095;-73
2021/12/25 10:03:43;;;;;;;1.63;0.80;;;;;;;;;;5102339;28;20062;-70
2021/12/25 10:06:11;;;;;;;1.40;0.93;;;;;;;;;;5095367;28;20098;-71
2021/12/25 10:08:39;;;;;;;3.30;0.93;;;;;;;;;;5096503;28;20047;-70
2021/12/25 10:11:09;;;;;;;2.10;1.00;;;;;;;;;;5098914;28;20568;-70
2021/12/25 10:13:40;;;;;;;2.92;0.90;;;;;;;;;;5103190;28;20517;-71
2021/12/25 10:16:21;;;;;;;1.60;0.70;;;;;;;;;;5100917;28;20039;-70
2021/12/25 10:18:50;;;;;;;1.85;0.90;;;;;;;;;;5102886;28;20046;-70
2021/12/25 10:21:20;;;;;;;0.80;0.70;;;;;;;;;;5093352;28;20140;-72
2021/12/25 10:24:03;;;;;;;1.85;0.80;;;;;;;;;;5099799;28;20063;-70
2021/12/25 10:26:32;;;;;;;1.52;0.85;;;;;;;;;;5106117;28;20131;-70
2021/12/25 10:29:00;;;;;;;1.65;0.90;;;;;;;;;;5097567;28;20054;-70
2021/12/25 10:31:32;;;;;;;1.77;0.93;;;;;;;;;;5108054;28;20131;-69
2021/12/25 10:34:01;;;;;;;2.15;1.10;;;;;;;;;;5108451;28;20048;-70
2021/12/25 10:36:30;;;;;;;1.42;0.88;;;;;;;;;;5107826;28;20130;-69
2021/12/25 10:39:00;;;;;;;2.03;0.80;;;;;;;;;;5097768;28;20487;-69
2021/12/25 10:41:29;;;;;;;1.33;0.60;;;;;;;;;;5106533;28;20043;-70
2021/12/25 10:44:13;;;;;;;2.00;0.80;;;;;;;;;;5103654;28;20138;-70
2021/12/25 10:46:52;;;;;;;1.17;0.80;;;;;;;;;;5103243;28;20051;-70
2021/12/25 10:49:21;;;;;;;1.27;0.77;;;;;;;;;;5104472;28;20043;-70
2021/12/25 10:51:50;;;;;;;1.08;0.60;;;;;;;;;;5105737;28;20047;-70
2021/12/25 10:54:19;;;;;;;1.55;0.68;;;;;;;;;;5102855;28;20051;-70
2021/12/25 10:56:48;;;;;;;1.70;0.70;;;;;;;;;;5107946;28;20570;-71
2021/12/25 10:59:19;;;;;;;1.27;0.70;;;;;;;;;;5101351;28;20048;-71
2021/12/25 11:01:48;;;;;;;1.73;0.77;;;;;;;;;;5097123;28;20120;-71
2021/12/25 11:04:27;;;;;;;2.38;0.57;;;;;;;;;;5109637;28;20079;-71
2021/12/25 11:06:56;;;;;;;0.88;0.60;;;;;;;;;;5097815;28;20142;-70
2021/12/25 11:09:24;;;;;;;0.57;0.45;;;;;;;;;;5102425;28;20070;-70
2021/12/25 11:14:30;;;;;;;3.10;0.90;;;;;;;;;;4951764;23;20429;-69
2021/12/25 11:16:58;;;;;;;1.75;0.93;;;;;;;;;;4952057;28;20138;-68
2021/12/25 11:19:34;;;;;;;1.10;0.60;;;;;;;;;;4954241;29;20085;-69
2021/12/25 11:22:04;;;;;;;2.53;0.90;;;;;;;;;;4955876;28;20058;-69
2021/12/25 11:24:37;;;;;;;1.17;0.68;;;;;;;;;;4955352;28;20403;-68
2021/12/25 11:27:07;;;;;;;1.88;0.73;;;;;;;;;;4948688;28;20059;-68
2021/12/25 11:29:37;;;;;;;1.15;0.60;;;;;;;;;;4952069;28;20175;-69
2021/12/25 11:32:08;;;;;;;2.67;0.77;;;;;;;;;;4949010;28;20345;-69
2021/12/25 11:34:37;;;;;;;1.35;0.60;;;;;;;;;;4953616;28;20070;-69
2021/12/25 11:37:06;;;;;;;1.20;0.60;;;;;;;;;;4951534;28;20043;-70
2021/12/25 11:39:35;;;;;;;0.52;0.43;;;;;;;;;;4952655;28;20098;-69
2021/12/25 11:44:43;;;;;;;0.88;0.57;;;;;;;;;;5013192;23;20147;-69
2021/12/25 11:47:29;;;;;;;1.02;0.63;;;;;;;;;;4972929;28;20135;-69
2021/12/25 11:49:58;;;;;;;1.23;0.68;;;;;;;;;;4971138;28;20065;-69
2021/12/25 11:52:31;;;;;;;1.55;0.77;;;;;;;;;;4971587;28;20150;-69
2021/12/25 11:55:20;;;;;;;1.80;0.80;;;;;;;;;;4964960;28;20050;-69
2021/12/25 11:57:57;;;;;;;2.05;0.80;;;;;;;;;;4968447;28;20083;-69
2021/12/25 12:00:38;;;;;;;1.75;0.80;;;;;;;;;;4972763;28;20082;-69
2021/12/25 12:03:07;;;;;;;1.42;0.90;;;;;;;;;;4970289;28;20071;-71
2021/12/25 12:05:36;;;;;;;2.13;0.70;;;;;;;;;;4965538;28;20097;-69
2021/12/25 12:08:06;;;;;;;1.00;0.60;;;;;;;;;;4966968;28;20086;-69
2021/12/25 12:10:56;;;;;;;2.30;0.98;;;;;;;;;;4959154;28;20138;-69
2021/12/25 12:13:26;;;;;;;2.33;0.90;;;;;;;;;;4970027;28;20043;-70
2021/12/25 12:15:57;;;;;;;1.33;0.90;;;;;;;;;;4970147;28;20042;-70
2021/12/25 12:18:39;;;;;;;1.55;0.90;;;;;;;;;;4972237;28;20043;-69
2021/12/25 12:21:11;;;;;;;1.83;0.93;;;;;;;;;;4966949;28;20150;-69
2021/12/25 12:23:52;;;;;;;1.60;1.00;;;;;;;;;;4962639;28;20082;-70
2021/12/25 12:26:35;;;;;;;2.05;0.90;;;;;;;;;;4970257;28;20053;-70
2021/12/25 12:29:03;;;;;;;2.10;1.17;;;;;;;;;;4965444;28;20153;-69
2021/12/25 12:31:37;;;;;;;1.95;1.08;;;;;;;;;;4970434;28;20074;-68
2021/12/25 12:34:20;;;;;;;1.98;1.05;;;;;;;;;;4971833;28;20121;-69
2021/12/25 12:36:48;;;;;;;1.65;0.90;;;;;;;;;;4970381;28;20547;-69
2021/12/25 12:39:19;;;;;;;1.38;1.00;;;;;;;;;;4970406;28;20886;-69
2021/12/25 12:41:54;;;;;;;1.75;0.90;;;;;;;;;;4971213;28;20170;-71
2021/12/25 12:44:28;;;;;;;1.25;0.63;;;;;;;;;;4987800;28;20062;-68
2021/12/25 12:46:59;;;;;;;4.72;1.23;;;;;;;;;;4989340;28;20054;-71
2021/12/25 12:49:30;;;;;;;2.85;0.93;;;;;;;;;;4991017;28;20165;-70
2021/12/25 12:52:14;;;;;;;2.17;1.05;;;;;;;;;;4991335;28;20062;-70
2021/12/25 12:54:43;;;;;;;3.10;1.00;;;;;;;;;;4988657;28;20058;-69
2021/12/25 12:57:17;;;;;;;1.90;1.17;;;;;;;;;;4983141;28;20133;-70
2021/12/25 12:59:46;;;;;;;2.35;1.05;;;;;;;;;;4986399;28;20096;-70
2021/12/25 13:02:16;;;;;;;2.45;1.05;;;;;;;;;;4986667;28;20058;-70
2021/12/25 13:04:46;;;;;;;1.90;1.08;;;;;;;;;;4987011;28;20081;-69
2021/12/25 13:07:15;;;;;;;2.22;1.00;;;;;;;;;;4987031;28;20358;-69
2021/12/25 13:09:49;;;;;;;4.22;1.38;;;;;;;;;;4988106;28;20356;-69
2021/12/25 13:12:31;;;;;;;2.10;1.05;;;;;;;;;;4987037;28;20089;-71
2021/12/25 13:15:01;;;;;;;3.53;1.40;;;;;;;;;;4987215;28;20595;-71
2021/12/25 13:17:30;;;;;;;1.98;1.10;;;;;;;;;;4987328;28;20050;-70
2021/12/25 13:19:59;;;;;;;1.77;1.10;;;;;;;;;;4987281;28;20074;-71
2021/12/25 13:22:27;;;;;;;2.47;1.30;;;;;;;;;;4985165;28;20047;-70
2021/12/25 13:25:04;;;;;;;5.10;1.23;;;;;;;;;;4986150;28;20529;-71
2021/12/25 13:27:32;;;;;;;2.17;1.20;;;;;;;;;;4982774;28;20050;-71
2021/12/25 13:30:05;;;;;;;4.35;1.30;;;;;;;;;;4984979;28;20046;-71
2021/12/25 13:32:35;;;;;;;1.95;1.40;;;;;;;;;;4984930;28;20056;-70
2021/12/25 13:35:04;;;;;;;2.42;1.52;;;;;;;;;;4987363;28;20080;-70
2021/12/25 13:37:32;;;;;;;2.65;1.40;;;;;;;;;;4985720;28;20207;-71
2021/12/25 13:40:00;;;;;;;2.70;1.40;;;;;;;;;;4985994;28;20046;-70
2021/12/25 13:42:29;;;;;;;2.83;1.23;;;;;;;;;;4984688;28;20043;-70
2021/12/25 13:44:57;;;;;;;2.88;1.20;;;;;;;;;;4985822;28;20067;-69
2021/12/25 13:47:28;;;;;;;3.22;1.40;;;;;;;;;;4987903;28;20475;-70
2021/12/25 13:49:59;;;;;;;3.80;1.45;;;;;;;;;;4987430;28;20486;-71
2021/12/25 13:52:34;;;;;;;2.97;1.15;;;;;;;;;;4982569;28;20046;-70
2021/12/25 13:55:06;;;;;;;2.07;1.40;;;;;;;;;;4989997;28;20082;-71
2021/12/25 13:57:36;;;;;;;1.98;1.00;;;;;;;;;;4986305;28;20081;-71
2021/12/25 14:00:07;;;;;;;2.30;1.25;;;;;;;;;;4985237;28;20417;-71
2021/12/25 14:02:35;;;;;;;2.72;1.63;;;;;;;;;;4986595;28;20046;-71
2021/12/25 14:05:07;;;;;;;2.92;1.60;;;;;;;;;;4985614;28;20050;-70
2021/12/25 14:07:35;;;;;;;2.33;1.63;;;;;;;;;;4985490;28;20105;-68
2021/12/25 14:10:07;;;;;;;4.53;1.73;;;;;;;;;;4989184;28;20137;-69
2021/12/25 14:12:36;;;;;;;2.78;1.40;;;;;;;;;;4996935;28;20686;-70
2021/12/25 14:15:05;;;;;;;5.22;1.67;;;;;;;;;;4993402;28;20138;-68
2021/12/25 14:17:34;;;;;;;3.90;1.60;;;;;;;;;;4997669;28;21316;-69
2021/12/25 14:20:08;;;;;;;2.25;1.25;;;;;;;;;;4989510;28;20141;-69
2021/12/25 14:22:37;;;;;;;2.65;1.23;;;;;;;;;;4943557;28;20071;-69
2021/12/25 14:25:06;;;;;;;4.47;1.65;;;;;;;;;;4955883;28;20500;-68
2021/12/25 14:27:35;;;;;;;4.93;1.88;;;;;;;;;;4954820;28;20089;-68
2021/12/25 14:30:08;;;;;;;4.22;1.90;;;;;;;;;;4948243;28;20094;-69
2021/12/25 14:32:36;;;;;;;2.97;1.25;;;;;;;;;;4957742;28;20136;-67
2021/12/25 14:35:16;;;;;;;6.43;1.95;;;;;;;;;;4951927;28;20137;-68
2021/12/25 14:37:44;;;;;;;3.67;1.88;;;;;;;;;;4964093;28;20138;-69
2021/12/25 14:40:15;;;;;;;3.55;1.75;;;;;;;;;;4953730;28;20505;-68
2021/12/25 14:42:44;;;;;;;7.72;2.10;;;;;;;;;;4958195;28;20154;-69
2021/12/25 14:45:13;;;;;;;2.63;1.42;;;;;;;;;;4944320;29;20138;-69
2021/12/25 14:47:52;;;;;;;3.50;1.83;;;;;;;;;;4954692;28;20047;-69
2021/12/25 14:50:25;;;;;;;4.25;2.03;;;;;;;;;;4955792;28;20051;-69
2021/12/25 14:53:04;;;;;;;2.65;1.70;;;;;;;;;;4953744;28;20534;-69
2021/12/25 14:55:34;;;;;;;2.58;1.60;;;;;;;;;;4989006;28;20134;-69
2021/12/25 14:58:07;;;;;;;2.85;1.50;;;;;;;;;;4987950;28;20489;-69
2021/12/25 15:00:35;;;;;;;6.18;2.60;;;;;;;;;;4991202;28;20038;-71
2021/12/25 15:03:14;;;;;;;5.20;1.73;;;;;;;;;;4986523;28;20054;-69
2021/12/25 15:05:46;;;;;;;7.35;2.20;;;;;;;;;;4987405;28;20498;-69
2021/12/25 15:08:18;;;;;;;3.35;1.75;;;;;;;;;;4990707;28;20483;-69
2021/12/25 15:10:47;;;;;;;4.97;1.83;;;;;;;;;;4989901;28;20068;-69
2021/12/25 15:13:15;;;;;;;4.88;1.80;;;;;;;;;;4989334;28;20594;-70
2021/12/25 15:15:51;;;;;;;6.15;2.25;;;;;;;;;;4990759;28;20085;-69
2021/12/25 15:18:26;;;;;;;4.07;1.85;;;;;;;;;;4980145;28;20078;-68
2021/12/25 15:21:13;;;;;;;5.63;2.25;;;;;;;;;;4982739;28;20046;-69
2021/12/25 15:23:41;;;;;;;4.55;2.47;;;;;;;;;;4990137;28;20539;-69
2021/12/25 15:26:11;;;;;;;5.90;2.08;;;;;;;;;;4992304;28;20125;-68
2021/12/25 15:28:40;;;;;;;5.53;2.15;;;;;;;;;;4993644;28;20490;-68
2021/12/25 15:31:19;;;;;;;4.53;2.53;;;;;;;;;;4987166;28;20149;-68
2021/12/25 15:33:49;;;;;;;3.97;2.13;;;;;;;;;;4990654;28;20509;-68
2021/12/25 15:36:19;;;;;;;5.40;2.10;;;;;;;;;;4989224;28;20148;-69
2021/12/25 15:38:47;;;;;;;3.38;1.95;;;;;;;;;;4987337;28;20093;-69
2021/12/25 15:41:16;;;;;;;3.67;1.90;;;;;;;;;;4991388;28;20138;-68
2021/12/25 15:43:45;;;;;;;4.18;2.10;;;;;;;;;;4993201;28;20085;-69
2021/12/25 15:46:14;;;;;;;6.10;2.45;;;;;;;;;;4991862;28;20508;-69
2021/12/25 15:48:42;;;;;;;5.60;2.50;;;;;;;;;;4985442;28;20054;-70
2021/12/25 15:51:12;;;;;;;3.35;1.77;;;;;;;;;;4985057;28;20462;-70
2021/12/25 15:53:42;;;;;;;4.55;2.33;;;;;;;;;;4973296;28;20137;-69
2021/12/25 15:56:10;;;;;;;5.85;2.42;;;;;;;;;;4992299;28;20061;-68
2021/12/25 15:58:39;;;;;;;5.95;2.00;;;;;;;;;;4991953;28;20052;-68
2021/12/25 16:01:08;;;;;;;5.93;2.38;;;;;;;;;;4981848;28;20090;-68
2021/12/25 16:03:36;;;;;;;5.00;2.30;;;;;;;;;;4991007;28;20058;-68
2021/12/25 16:06:07;;;;;;;4.85;2.45;;;;;;;;;;4994638;28;20125;-68
2021/12/25 16:08:36;;;;;;;5.57;2.15;;;;;;;;;;4993392;28;20100;-68